Time;durP1;ratioP1;P1;durP2;ratioP2;P2;SDS_P1;SDS_P2;PMS_P1;PMS_P2;Temp;Humidity;BMP_temperature;BMP_pressure;BME280_temperature;BME280_humidity;BME280_pressure;Samples;Min_cycle;Max_cycle;Signal;HPM_P1;HPM_P2
2022/07/30 00:00:42;;;;;;;2.60;1.20;;;;;;;19.12;45.74;100339.91;107766;1269;139283;-71
2022/07/30 00:03:14;;;;;;;1.70;1.10;;;;;;;19.11;45.61;100342.67;107902;1269;94673;-73
2022/07/30 00:05:47;;;;;;;3.00;1.40;;;;;;;19.10;45.60;100347.52;107833;1270;111281;-71
2022/07/30 00:08:20;;;;;;;2.40;1.10;;;;;;;19.10;45.72;100347.31;107766;1269;138710;-71
2022/07/30 00:10:53;;;;;;;4.70;1.50;;;;;;;19.10;45.80;100343.77;107850;1269;109032;-71
2022/07/30 00:13:25;;;;;;;2.90;1.30;;;;;;;19.10;45.78;100341.98;107744;1269;137515;-71
2022/07/30 00:15:58;;;;;;;5.20;1.30;;;;;;;19.11;45.77;100337.52;107877;1270;94825;-72
2022/07/30 00:18:30;;;;;;;3.80;1.50;;;;;;;19.10;45.77;100337.58;107797;1269;137465;-71
2022/07/30 00:21:03;;;;;;;3.70;1.50;;;;;;;19.09;45.99;100342.45;107914;1270;109043;-72
2022/07/30 00:23:37;;;;;;;3.00;1.50;;;;;;;19.09;45.87;100335.21;107882;1269;107873;-70
2022/07/30 00:26:09;;;;;;;5.30;1.40;;;;;;;19.09;46.00;100333.63;107782;1269;138174;-70
2022/07/30 00:28:41;;;;;;;4.20;1.30;;;;;;;19.08;46.23;100326.29;107888;1269;94835;-70
2022/07/30 00:31:14;;;;;;;2.70;1.20;;;;;;;19.07;46.45;100316.64;107038;1268;137417;-70
2022/07/30 00:33:46;;;;;;;3.90;1.20;;;;;;;19.07;46.53;100313.34;106359;1270;107579;-69
2022/07/30 00:36:19;;;;;;;7.50;1.50;;;;;;;19.05;46.74;100304.98;106485;1270;138802;-69
2022/07/30 00:38:51;;;;;;;2.60;1.30;;;;;;;19.04;46.85;100305.24;106240;1270;96682;-69
2022/07/30 00:41:26;;;;;;;3.10;1.10;;;;;;;19.03;46.95;100298.95;106345;1269;96541;-70
2022/07/30 00:43:58;;;;;;;3.50;1.20;;;;;;;19.01;46.98;100299.06;107300;1270;137410;-70
2022/07/30 00:46:31;;;;;;;1.60;1.20;;;;;;;19.01;46.96;100302.05;107837;1268;108841;-69
2022/07/30 00:49:03;;;;;;;4.20;1.30;;;;;;;19.01;47.01;100304.50;107459;1270;138253;-70
2022/07/30 00:51:36;;;;;;;4.20;1.80;;;;;;;19.01;47.15;100298.67;107873;1269;94674;-70
2022/07/30 00:54:08;;;;;;;2.30;1.20;;;;;;;19.02;47.12;100294.42;107929;1268;94793;-69
2022/07/30 00:56:41;;;;;;;4.80;1.30;;;;;;;19.01;47.08;100293.09;106775;1269;111112;-70
2022/07/30 00:59:13;;;;;;;2.80;1.50;;;;;;;18.99;47.10;100287.05;106322;1270;107815;-71
2022/07/30 01:01:46;;;;;;;2.00;1.10;;;;;;;18.97;47.23;100285.40;107537;1269;139603;-71
2022/07/30 01:04:18;;;;;;;3.80;1.30;;;;;;;18.96;47.41;100284.08;106219;1269;96504;-69
2022/07/30 01:06:51;;;;;;;2.80;1.30;;;;;;;18.95;47.45;100283.46;106228;1270;138215;-69
2022/07/30 01:09:23;;;;;;;2.40;1.40;;;;;;;18.93;47.50;100288.16;107551;1269;111022;-69
2022/07/30 01:11:55;;;;;;;3.00;1.60;;;;;;;18.91;47.77;100291.98;107919;1269;108143;-69
2022/07/30 01:14:28;;;;;;;3.60;1.40;;;;;;;18.91;47.74;100283.58;107774;1270;137629;-69
2022/07/30 01:17:00;;;;;;;3.40;1.50;;;;;;;18.89;47.85;100278.53;107876;1270;94664;-70
2022/07/30 01:19:52;;;;;;;4.90;1.50;;;;;;;18.88;47.85;100268.23;107804;1269;137379;-70
2022/07/30 01:22:37;;;;;;;2.60;1.70;;;;;;;18.86;48.04;100262.54;107876;1269;111399;-69
2022/07/30 01:25:17;;;;;;;3.10;1.30;;;;;;;18.85;48.10;100265.63;107273;1269;137694;-70
2022/07/30 01:27:54;;;;;;;5.00;1.60;;;;;;;18.84;48.29;100268.32;107836;1269;108361;-70
2022/07/30 01:30:31;;;;;;;7.00;1.50;;;;;;;18.83;48.36;100262.93;106560;1270;137819;-70
2022/07/30 01:33:10;;;;;;;4.30;1.60;;;;;;;18.82;48.39;100268.11;107913;1269;94910;-71
2022/07/30 01:35:45;;;;;;;5.10;1.40;;;;;;;18.81;48.57;100266.21;107629;1269;111479;-70
2022/07/30 01:38:21;;;;;;;4.70;1.60;;;;;;;18.82;48.72;100264.92;106601;1270;137721;-70
2022/07/30 01:40:53;;;;;;;;;;;;;;;18.83;48.64;100271.73;106211;1270;106659;-69
2022/07/30 01:43:27;;;;;;;3.90;1.20;;;;;;;18.82;48.86;100266.69;106159;1270;124156;-70
2022/07/30 01:46:02;;;;;;;3.00;1.40;;;;;;;18.82;48.89;100260.69;107873;1269;94562;-70
2022/07/30 01:48:40;;;;;;;4.90;1.30;;;;;;;18.82;48.87;100249.27;107771;1270;138081;-70
2022/07/30 01:51:16;;;;;;;2.10;1.30;;;;;;;18.80;49.00;100244.07;107852;1270;109030;-70
2022/07/30 01:53:53;;;;;;;3.70;1.60;;;;;;;18.77;49.19;100240.77;107177;1270;107544;-70
2022/07/30 01:56:26;;;;;;;4.30;1.60;;;;;;;18.75;49.16;100237.41;106205;1270;137485;-72
2022/07/30 01:59:01;;;;;;;4.30;1.60;;;;;;;18.73;49.33;100239.30;107854;1269;94659;-69
2022/07/30 02:01:34;;;;;;;6.70;1.50;;;;;;;18.70;49.48;100236.66;107791;1270;139232;-70
2022/07/30 02:04:06;;;;;;;4.70;1.60;;;;;;;18.67;49.54;100230.86;107867;1270;108248;-70
2022/07/30 02:06:42;;;;;;;4.80;1.40;;;;;;;18.64;49.71;100231.23;107724;1269;137810;-69
2022/07/30 02:09:23;;;;;;;4.90;1.40;;;;;;;18.62;49.75;100231.52;107807;1270;94979;-69
2022/07/30 02:14:51;;;;;;;3.90;1.30;;;;;;;18.59;50.10;100226.80;106202;1270;110721;-70
2022/07/30 02:17:29;;;;;;;6.20;1.50;;;;;;;18.56;50.16;100223.80;106250;1270;109007;-69
2022/07/30 02:20:13;;;;;;;2.00;1.40;;;;;;;18.53;50.39;100221.40;106161;1269;137442;-70
2022/07/30 02:22:48;;;;;;;3.30;1.30;;;;;;;18.49;50.43;100226.77;106340;1270;96865;-70
2022/07/30 02:25:23;;;;;;;4.70;1.40;;;;;;;18.46;50.59;100225.87;106219;1269;138383;-69
2022/07/30 02:28:00;;;;;;;4.20;1.50;;;;;;;18.42;50.63;100221.04;106405;1270;110360;-70
2022/07/30 02:30:39;;;;;;;2.90;1.40;;;;;;;18.38;50.75;100215.63;107676;1269;139116;-71
2022/07/30 02:33:12;;;;;;;;;;;;;;;18.35;50.89;100209.52;107784;1270;106565;-71
2022/07/30 02:35:45;;;;;;;3.00;1.50;;;;;;;18.32;51.06;100205.84;107884;1270;96028;-71
2022/07/30 02:38:20;;;;;;;3.40;1.40;;;;;;;18.29;51.13;100210.23;107810;1270;137521;-71
2022/07/30 02:40:55;;;;;;;3.30;1.40;;;;;;;18.25;51.32;100207.36;107366;1270;111127;-71
2022/07/30 02:43:29;;;;;;;2.70;1.50;;;;;;;18.22;51.43;100199.09;106097;1270;137786;-70
2022/07/30 02:46:09;;;;;;;5.40;1.50;;;;;;;18.20;51.46;100190.45;107791;1270;108509;-70
2022/07/30 02:49:10;;;;;;;3.20;1.20;;;;;;;18.19;51.58;100185.59;106180;1270;137825;-70
2022/07/30 02:51:46;;;;;;;2.10;1.40;;;;;;;18.19;51.72;100182.10;106308;1270;96519;-71
2022/07/30 02:54:20;;;;;;;6.30;1.50;;;;;;;18.19;51.79;100179.79;106114;1270;137518;-70
2022/07/30 02:56:55;;;;;;;4.00;1.40;;;;;;;18.19;51.90;100181.20;107516;1269;109297;-71
2022/07/30 02:59:28;;;;;;;2.60;1.40;;;;;;;18.20;51.86;100176.23;107888;1270;107764;-70
2022/07/30 03:02:03;;;;;;;2.10;1.30;;;;;;;18.20;51.94;100173.92;107785;1269;137454;-71
2022/07/30 03:04:36;;;;;;;4.90;1.30;;;;;;;18.20;52.04;100167.42;107407;1270;94715;-70
2022/07/30 03:07:10;;;;;;;2.30;1.30;;;;;;;18.19;52.08;100163.41;106213;1270;137553;-70
2022/07/30 03:09:45;;;;;;;2.50;1.20;;;;;;;18.20;52.18;100161.98;107911;1270;108496;-70
2022/07/30 03:12:25;;;;;;;2.80;1.40;;;;;;;18.19;52.26;100158.81;107693;1270;138160;-70
2022/07/30 03:14:58;;;;;;;4.60;1.30;;;;;;;18.21;52.35;100162.40;107842;1270;94886;-69
2022/07/30 03:17:37;;;;;;;3.00;1.40;;;;;;;18.22;52.36;100164.08;107263;1270;94952;-71
2022/07/30 03:20:13;;;;;;;4.10;1.50;;;;;;;18.23;52.42;100166.10;106184;1270;137442;-69
2022/07/30 03:22:52;;;;;;;5.20;1.30;;;;;;;18.24;52.39;100166.45;106288;1270;107744;-70
2022/07/30 03:25:28;;;;;;;9.00;1.90;;;;;;;18.25;52.48;100170.41;106094;1270;137569;-70
2022/07/30 03:28:03;;;;;;;3.40;1.50;;;;;;;18.25;52.42;100162.29;106304;1270;96485;-70
2022/07/30 03:30:36;;;;;;;4.00;1.30;;;;;;;18.26;52.62;100161.71;107497;1270;137447;-70
2022/07/30 03:33:08;;;;;;;3.80;1.50;;;;;;;18.25;52.57;100152.61;106331;1270;110775;-71
2022/07/30 03:35:43;;;;;;;3.20;1.50;;;;;;;18.25;52.59;100157.91;106341;1270;108553;-69
2022/07/30 03:38:17;;;;;;;2.40;1.30;;;;;;;18.24;52.66;100155.14;106225;1270;137704;-70
2022/07/30 03:40:51;;;;;;;3.40;1.50;;;;;;;18.22;52.78;100154.61;106313;1269;97076;-70
2022/07/30 03:43:24;;;;;;;2.70;1.30;;;;;;;18.21;52.85;100153.94;106139;1270;137307;-71
2022/07/30 03:46:07;;;;;;;3.00;1.30;;;;;;;18.21;52.92;100147.83;106221;1270;110016;-70
2022/07/30 03:48:43;;;;;;;2.30;1.10;;;;;;;18.21;52.95;100146.41;107776;1269;137904;-70
2022/07/30 03:51:16;;;;;;;3.20;1.50;;;;;;;18.20;53.01;100145.42;107883;1270;108710;-70
2022/07/30 03:53:51;;;;;;;4.20;1.60;;;;;;;18.20;53.00;100154.05;106638;1270;96520;-69
2022/07/30 03:56:42;;;;;;;6.20;1.30;;;;;;;18.21;53.00;100159.62;106303;1270;96874;-71
2022/07/30 03:59:19;;;;;;;1.60;1.20;;;;;;;18.20;53.18;100161.95;106370;1270;111154;-70
2022/07/30 04:01:52;;;;;;;6.60;1.80;;;;;;;18.18;53.13;100165.94;106236;1270;137859;-70
2022/07/30 04:04:44;;;;;;;2.90;1.60;;;;;;;18.17;53.26;100170.76;106370;1270;107828;-70
2022/07/30 04:07:16;;;;;;;3.80;1.60;;;;;;;18.16;53.32;100174.36;106204;1268;137661;-70
2022/07/30 04:09:49;;;;;;;3.10;1.80;;;;;;;18.16;53.37;100176.45;106231;1270;96491;-69
2022/07/30 04:12:50;;;;;;;4.20;1.70;;;;;;;18.18;53.36;100176.52;105854;1270;138286;-70
2022/07/30 04:15:22;;;;;;;4.30;1.60;;;;;;;18.18;53.57;100176.67;106301;1269;107974;-69
2022/07/30 04:18:18;;;;;;;3.20;1.40;;;;;;;18.16;53.65;100181.41;106175;1270;137816;-69
2022/07/30 04:20:53;;;;;;;2.90;1.30;;;;;;;18.14;53.65;100183.80;106401;1270;96477;-70
2022/07/30 04:23:26;;;;;;;2.30;1.50;;;;;;;18.14;53.79;100180.66;106332;1270;96505;-70
2022/07/30 04:25:59;;;;;;;4.30;1.50;;;;;;;18.15;53.77;100172.33;106090;1270;139000;-70
2022/07/30 04:28:31;;;;;;;3.60;1.70;;;;;;;18.17;53.84;100171.30;106311;1270;108959;-70
2022/07/30 04:31:05;;;;;;;3.80;1.60;;;;;;;18.18;53.84;100171.38;106223;1270;137792;-70
2022/07/30 04:33:38;;;;;;;3.70;1.50;;;;;;;18.20;53.95;100165.30;106210;1270;96536;-71
2022/07/30 04:36:34;;;;;;;3.00;1.30;;;;;;;18.24;53.94;100164.69;106226;1270;137443;-70
2022/07/30 04:39:06;;;;;;;3.50;1.60;;;;;;;18.29;53.91;100163.11;106280;1270;111504;-70
2022/07/30 04:41:39;;;;;;;5.40;1.60;;;;;;;18.34;53.97;100163.67;106330;1270;108856;-70
2022/07/30 04:44:30;;;;;;;3.40;1.50;;;;;;;18.38;53.97;100158.13;106166;1270;137331;-69
2022/07/30 04:47:23;;;;;;;3.60;1.60;;;;;;;18.43;53.90;100160.38;106288;1270;96466;-70
2022/07/30 04:50:14;;;;;;;4.30;1.60;;;;;;;18.50;53.92;100163.33;106094;1270;137616;-69
2022/07/30 04:52:47;;;;;;;1.90;1.40;;;;;;;18.57;53.71;100167.59;106238;1270;109719;-70
2022/07/30 04:55:24;;;;;;;3.40;1.60;;;;;;;18.62;53.64;100168.79;106164;1270;137855;-71
2022/07/30 04:57:59;;;;;;;4.60;1.40;;;;;;;18.67;53.55;100161.11;106483;1270;109041;-71
2022/07/30 05:00:38;;;;;;;3.70;1.50;;;;;;;18.71;53.41;100159.61;107687;1270;139276;-71
2022/07/30 05:03:16;;;;;;;5.70;2.00;;;;;;;18.74;53.54;100153.80;107881;1269;94616;-71
2022/07/30 05:05:55;;;;;;;4.70;1.60;;;;;;;18.77;53.57;100156.75;107855;1270;110784;-71
2022/07/30 05:08:30;;;;;;;3.30;1.60;;;;;;;18.80;53.45;100154.81;107695;1269;137367;-71
2022/07/30 05:11:04;;;;;;;3.10;1.60;;;;;;;18.82;53.52;100153.08;107643;1269;109095;-70
2022/07/30 05:13:36;;;;;;;3.30;1.80;;;;;;;18.83;53.53;100153.69;106082;1270;137496;-71
2022/07/30 05:16:12;;;;;;;4.00;1.40;;;;;;;18.84;53.55;100158.04;106296;1270;96371;-69
2022/07/30 05:18:44;;;;;;;3.80;1.70;;;;;;;18.85;53.43;100158.71;106218;1270;137532;-70
2022/07/30 05:21:17;;;;;;;4.90;1.80;;;;;;;18.83;53.39;100159.33;106293;1270;107431;-70
2022/07/30 05:23:52;;;;;;;3.00;1.30;;;;;;;18.81;53.33;100153.52;106284;1267;108717;-70
2022/07/30 05:26:51;;;;;;;2.80;1.40;;;;;;;18.79;53.58;100154.68;106255;1270;96496;-69
2022/07/30 05:29:24;;;;;;;4.90;1.40;;;;;;;18.77;53.63;100155.70;106295;1270;96452;-69
2022/07/30 05:32:01;;;;;;;3.10;1.50;;;;;;;18.78;53.67;100151.27;106027;1271;137272;-70
2022/07/30 05:34:35;;;;;;;4.90;1.50;;;;;;;18.77;53.76;100153.11;106321;1270;107701;-69
2022/07/30 05:37:09;;;;;;;2.80;2.00;;;;;;;18.75;53.91;100155.66;106221;1270;137651;-70
2022/07/30 05:39:43;;;;;;;3.70;1.70;;;;;;;18.76;53.94;100152.42;106363;1270;96582;-70
2022/07/30 05:43:00;;;;;;;6.70;1.70;;;;;;;18.78;53.96;100147.73;107651;1270;137836;-70
2022/07/30 05:45:32;;;;;;;4.00;1.50;;;;;;;18.78;53.96;100148.40;107863;1270;110463;-70
2022/07/30 05:48:05;;;;;;;3.90;2.10;;;;;;;18.79;54.02;100149.60;107855;1270;109143;-70
2022/07/30 05:50:38;;;;;;;5.30;1.60;;;;;;;18.79;54.11;100143.75;107822;1270;107639;-71
2022/07/30 05:53:10;;;;;;;3.50;1.70;;;;;;;18.81;54.07;100142.77;107925;1270;94728;-70
2022/07/30 05:56:09;;;;;;;2.20;1.40;;;;;;;18.83;54.21;100141.23;107667;1269;137257;-71
2022/07/30 05:59:02;;;;;;;4.50;1.50;;;;;;;18.83;54.29;100144.36;106313;1271;111066;-70
2022/07/30 06:01:54;;;;;;;2.40;1.50;;;;;;;18.84;54.21;100142.70;106962;1269;137677;-70
2022/07/30 06:04:31;;;;;;;7.80;1.70;;;;;;;18.86;54.33;100138.92;107857;1271;108675;-71
2022/07/30 06:07:07;;;;;;;5.10;2.20;;;;;;;18.88;54.54;100137.54;107717;1270;137375;-70
2022/07/30 06:09:40;;;;;;;4.40;1.80;;;;;;;18.91;54.73;100143.50;107898;1270;94997;-70
2022/07/30 06:12:12;;;;;;;6.20;3.20;;;;;;;18.92;54.85;100143.59;107763;1270;137675;-70
2022/07/30 06:14:45;;;;;;;9.50;3.50;;;;;;;18.93;55.21;100149.52;106861;1270;108651;-70
2022/07/30 06:17:21;;;;;;;7.70;1.90;;;;;;;18.93;55.12;100147.92;106288;1271;109112;-69
2022/07/30 06:20:11;;;;;;;3.50;1.60;;;;;;;18.94;55.27;100149.77;106196;1271;139185;-69
2022/07/30 06:23:03;;;;;;;4.40;1.70;;;;;;;18.96;55.36;100146.33;107907;1270;95031;-70
2022/07/30 06:25:47;;;;;;;2.70;1.60;;;;;;;18.97;55.34;100146.20;107740;1270;138224;-70
2022/07/30 06:28:20;;;;;;;4.00;1.80;;;;;;;19.01;55.20;100146.13;107867;1270;109230;-70
2022/07/30 06:31:09;;;;;;;3.80;1.60;;;;;;;19.05;55.52;100142.73;107712;1271;139645;-69
2022/07/30 06:33:41;;;;;;;4.40;1.80;;;;;;;19.10;55.65;100141.13;107818;1270;94795;-70
2022/07/30 06:36:14;;;;;;;2.20;1.50;;;;;;;19.14;55.91;100136.73;107797;1270;138274;-69
2022/07/30 06:39:02;;;;;;;5.20;1.70;;;;;;;19.21;55.69;100130.45;107075;1270;111323;-71
2022/07/30 06:41:53;;;;;;;5.00;1.80;;;;;;;19.28;55.93;100125.36;106177;1271;108571;-70
2022/07/30 06:44:25;;;;;;;3.80;2.00;;;;;;;19.37;56.10;100121.22;106184;1270;139422;-71
2022/07/30 06:47:08;;;;;;;3.80;1.70;;;;;;;19.47;55.95;100117.36;106275;1270;96456;-71
2022/07/30 06:49:42;;;;;;;3.90;1.70;;;;;;;19.57;56.00;100120.33;106219;1271;138313;-70
2022/07/30 06:52:15;;;;;;;5.60;1.80;;;;;;;19.66;56.10;100121.30;106199;1271;110552;-70
2022/07/30 06:54:53;;;;;;;4.90;2.10;;;;;;;19.71;55.64;100123.23;106234;1270;139011;-71
2022/07/30 06:57:39;;;;;;;3.70;2.00;;;;;;;19.75;55.65;100122.63;106111;1270;108951;-70
2022/07/30 07:00:27;;;;;;;7.10;2.30;;;;;;;19.75;55.54;100116.42;105938;1271;138299;-69
2022/07/30 07:03:00;;;;;;;4.10;1.80;;;;;;;19.77;55.39;100107.09;106098;1270;96483;-69
2022/07/30 07:05:39;;;;;;;5.20;1.80;;;;;;;19.80;55.53;100104.92;106139;1271;109978;-70
2022/07/30 07:08:12;;;;;;;3.40;2.00;;;;;;;19.84;55.22;100106.05;106139;1270;138965;-71
2022/07/30 07:10:48;;;;;;;3.20;1.60;;;;;;;19.91;55.14;100106.97;106286;1270;108697;-70
2022/07/30 07:13:35;;;;;;;3.60;1.70;;;;;;;20.01;55.12;100110.86;106173;1270;137882;-70
2022/07/30 07:16:08;;;;;;;4.70;1.90;;;;;;;20.09;54.80;100109.90;106358;1271;96487;-70
2022/07/30 07:18:41;;;;;;;7.90;1.90;;;;;;;20.16;54.52;100103.02;106195;1270;138264;-69
2022/07/30 07:21:14;;;;;;;3.90;1.80;;;;;;;20.22;54.51;100098.48;106232;1270;108879;-70
2022/07/30 07:23:48;;;;;;;4.80;2.10;;;;;;;20.26;54.29;100094.83;107879;1270;107756;-69
2022/07/30 07:26:47;;;;;;;3.80;1.70;;;;;;;20.27;54.13;100092.64;106201;1271;96568;-71
2022/07/30 07:29:19;;;;;;;5.50;2.10;;;;;;;20.28;54.24;100086.39;106289;1270;96548;-69
2022/07/30 07:31:51;;;;;;;2.00;1.60;;;;;;;20.32;54.16;100085.40;106184;1269;137629;-69
2022/07/30 07:34:40;;;;;;;4.60;1.80;;;;;;;20.39;53.97;100089.45;106276;1270;109218;-70
2022/07/30 07:37:14;;;;;;;3.40;1.90;;;;;;;20.45;53.88;100092.86;106218;1270;138485;-69
2022/07/30 07:39:46;;;;;;;4.70;1.80;;;;;;;20.55;53.78;100096.89;106329;1270;97039;-70
2022/07/30 07:42:19;;;;;;;7.40;1.80;;;;;;;20.66;53.68;100095.72;106257;1271;137580;-70
2022/07/30 07:44:52;;;;;;;4.30;1.60;;;;;;;20.78;53.67;100099.23;107899;1270;111113;-70
2022/07/30 07:47:25;;;;;;;6.10;1.90;;;;;;;20.91;53.46;100099.84;107832;1270;109027;-70
2022/07/30 07:50:11;;;;;;;3.80;1.90;;;;;;;21.01;53.33;100098.83;106726;1270;138362;-71
2022/07/30 07:52:43;;;;;;;2.40;2.00;;;;;;;21.11;53.20;100097.12;106202;1270;96456;-70
2022/07/30 07:55:16;;;;;;;3.20;2.10;;;;;;;21.21;52.72;100091.63;106090;1270;139137;-71
2022/07/30 07:57:49;;;;;;;3.70;2.10;;;;;;;21.28;52.78;100085.76;106276;1270;110823;-71
2022/07/30 08:00:21;;;;;;;3.40;1.90;;;;;;;21.37;52.62;100084.33;106170;1271;138322;-71
2022/07/30 08:02:55;;;;;;;4.50;1.90;;;;;;;21.51;52.57;100079.87;106215;1271;106924;-69
2022/07/30 08:05:27;;;;;;;7.50;2.00;;;;;;;21.72;52.74;100074.08;106130;1271;96616;-70
2022/07/30 08:08:28;;;;;;;4.60;2.10;;;;;;;22.09;52.44;100073.38;106160;1270;137221;-70
2022/07/30 08:11:36;;;;;;;6.90;2.10;;;;;;;22.39;51.55;100076.00;105986;1274;111617;-70
2022/07/30 08:14:28;;;;;;;3.00;2.00;;;;;;;22.65;51.49;100077.55;106145;1270;137812;-72
2022/07/30 08:17:23;;;;;;;2.20;1.70;;;;;;;22.90;51.01;100076.47;106284;1269;107534;-70
2022/07/30 08:20:16;;;;;;;4.10;1.80;;;;;;;23.11;50.51;100069.69;106164;1270;138079;-70
2022/07/30 08:22:49;;;;;;;4.30;1.90;;;;;;;23.33;50.38;100064.21;106210;1271;96557;-71
2022/07/30 08:25:22;;;;;;;4.30;1.90;;;;;;;23.67;50.37;100061.53;106192;1270;137451;-70
2022/07/30 08:27:56;;;;;;;5.30;2.30;;;;;;;24.05;49.98;100060.77;107293;1271;108378;-70
2022/07/30 08:30:29;;;;;;;6.70;2.20;;;;;;;24.35;49.13;100061.92;107728;1271;138083;-71
2022/07/30 08:33:01;;;;;;;3.00;1.80;;;;;;;24.61;48.38;100060.68;107718;1270;94884;-71
2022/07/30 08:35:34;;;;;;;3.30;2.10;;;;;;;24.90;48.49;100061.40;106315;1270;96572;-69
2022/07/30 08:38:06;;;;;;;3.30;1.70;;;;;;;25.21;47.91;100056.13;106220;1271;138525;-71
2022/07/30 08:40:39;;;;;;;5.40;1.70;;;;;;;25.32;47.03;100048.27;106314;1271;108756;-70
2022/07/30 08:43:11;;;;;;;4.90;1.90;;;;;;;25.37;46.75;100048.53;106201;1269;137454;-70
2022/07/30 08:45:45;;;;;;;5.50;1.90;;;;;;;25.40;46.51;100047.83;106213;1271;96520;-70
2022/07/30 08:48:33;;;;;;;8.20;2.20;;;;;;;25.43;46.33;100053.40;106240;1271;138148;-70
2022/07/30 08:51:05;;;;;;;6.00;2.10;;;;;;;25.42;46.34;100052.26;106192;1270;110075;-70
2022/07/30 08:53:38;;;;;;;7.40;4.00;;;;;;;25.53;46.32;100048.51;106250;1268;108369;-69
2022/07/30 08:56:13;;;;;;;3.10;2.10;;;;;;;25.70;46.22;100045.79;106166;1268;137993;-69
2022/07/30 08:58:47;;;;;;;2.40;1.70;;;;;;;25.82;46.33;100044.05;106198;1271;96549;-70
2022/07/30 09:01:22;;;;;;;6.50;1.80;;;;;;;25.92;45.94;100041.34;106204;1267;137407;-70
2022/07/30 09:03:55;;;;;;;5.70;1.80;;;;;;;26.07;45.82;100043.40;106279;1268;110969;-70
2022/07/30 09:06:30;;;;;;;7.80;2.00;;;;;;;26.21;45.22;100043.39;106131;1270;137792;-70
2022/07/30 09:09:03;;;;;;;4.50;1.80;;;;;;;26.30;44.93;100042.26;106238;1271;109131;-71
2022/07/30 09:11:37;;;;;;;12.10;2.00;;;;;;;26.61;45.08;100041.67;106304;1268;96461;-71
2022/07/30 09:14:13;;;;;;;5.50;1.90;;;;;;;26.87;44.24;100042.17;106262;1268;138652;-71
2022/07/30 09:16:46;;;;;;;5.20;1.90;;;;;;;27.13;44.12;100037.48;106252;1268;111028;-70
2022/07/30 09:19:21;;;;;;;4.30;1.70;;;;;;;27.45;43.96;100036.30;106245;1268;137540;-71
2022/07/30 09:22:01;;;;;;;7.00;2.00;;;;;;;27.72;43.32;100035.84;106238;1271;108891;-71
2022/07/30 09:24:48;;;;;;;4.30;2.00;;;;;;;28.10;42.82;100036.77;106213;1268;137714;-69
2022/07/30 09:27:58;;;;;;;3.70;1.60;;;;;;;28.53;42.38;100036.50;106289;1268;97129;-70
2022/07/30 09:30:52;;;;;;;3.40;1.90;;;;;;;28.89;41.58;100036.37;106186;1268;138798;-69
2022/07/30 09:33:46;;;;;;;4.20;1.80;;;;;;;29.33;41.29;100033.27;107600;1268;108388;-69
2022/07/30 09:36:37;;;;;;;2.70;1.80;;;;;;;29.38;40.08;100036.96;107760;1268;138172;-70
2022/07/30 09:39:32;;;;;;;4.60;1.60;;;;;;;29.13;39.49;100035.87;107903;1267;94900;-70
2022/07/30 09:42:30;;;;;;;3.70;2.40;;;;;;;28.71;39.74;100039.83;107767;1268;138056;-69
2022/07/30 09:45:12;;;;;;;3.90;2.20;;;;;;;28.37;40.01;100037.19;107851;1268;109970;-69
2022/07/30 09:47:48;;;;;;;4.80;1.90;;;;;;;28.01;40.36;100035.59;107865;1270;108957;-70
2022/07/30 09:50:23;;;;;;;7.00;1.90;;;;;;;27.69;40.68;100028.53;107736;1268;137556;-70
2022/07/30 09:53:09;;;;;;;4.70;1.90;;;;;;;27.37;41.11;100030.64;107855;1270;95047;-71
2022/07/30 09:56:22;;;;;;;6.50;2.10;;;;;;;27.04;41.69;100022.17;107840;1268;138246;-70
2022/07/30 09:58:56;;;;;;;2.90;2.00;;;;;;;26.73;42.06;100025.27;107945;1268;111015;-70
2022/07/30 10:01:28;;;;;;;5.30;2.20;;;;;;;26.51;42.47;100031.25;106779;1268;137599;-70
2022/07/30 10:04:47;;;;;;;4.40;2.70;;;;;;;26.29;43.13;100033.10;106178;1268;108931;-69
2022/07/30 10:07:22;;;;;;;6.10;2.10;;;;;;;26.11;43.09;100032.45;106297;1270;137709;-69
2022/07/30 10:10:02;;;;;;;43.70;20.80;;;;;;;25.93;43.58;100033.20;106396;1270;96451;-69
2022/07/30 10:12:39;;;;;;;6.70;2.30;;;;;;;25.78;43.69;100028.66;107806;1268;137851;-70
2022/07/30 10:15:13;;;;;;;4.50;2.10;;;;;;;25.65;44.12;100029.77;107879;1268;109194;-70
2022/07/30 10:17:47;;;;;;;5.00;1.90;;;;;;;25.51;44.34;100033.27;107897;1268;107496;-69
2022/07/30 10:20:37;;;;;;;4.70;2.00;;;;;;;25.37;44.53;100034.77;106712;1270;96908;-69
2022/07/30 10:23:32;;;;;;;2.80;2.20;;;;;;;25.22;44.85;100035.94;106238;1270;96466;-70
2022/07/30 10:26:26;;;;;;;10.80;5.20;;;;;;;25.09;44.96;100037.52;106257;1268;137896;-69
2022/07/30 10:29:19;;;;;;;6.90;4.00;;;;;;;24.98;45.45;100035.37;106323;1268;109165;-69
2022/07/30 10:32:05;;;;;;;10.20;2.10;;;;;;;24.87;45.73;100038.89;107762;1268;137610;-70
2022/07/30 10:34:40;;;;;;;4.40;2.40;;;;;;;24.76;45.91;100040.15;107875;1268;94831;-70
2022/07/30 10:37:15;;;;;;;6.30;2.00;;;;;;;24.64;45.94;100038.96;107794;1268;137536;-70
2022/07/30 10:39:56;;;;;;;3.70;2.10;;;;;;;24.56;45.98;100039.89;107952;1268;109788;-70
2022/07/30 10:42:50;;;;;;;2.60;2.00;;;;;;;24.43;46.23;100044.10;107751;1268;138410;-70
2022/07/30 10:45:32;;;;;;;4.50;2.90;;;;;;;24.33;46.66;100046.31;107897;1267;108762;-70
2022/07/30 10:48:18;;;;;;;5.90;2.40;;;;;;;24.22;46.84;100049.60;107749;1268;137931;-70
2022/07/30 10:50:55;;;;;;;4.50;2.40;;;;;;;24.12;47.17;100046.38;107928;1268;94571;-70
2022/07/30 10:53:38;;;;;;;5.10;2.80;;;;;;;24.05;47.57;100045.44;106718;1268;111104;-69
2022/07/30 10:56:17;;;;;;;6.50;2.90;;;;;;;23.98;47.85;100048.61;107760;1269;139310;-70
2022/07/30 10:59:07;;;;;;;7.20;2.70;;;;;;;23.91;48.03;100044.51;106771;1268;108835;-69
2022/07/30 11:02:09;;;;;;;6.50;2.80;;;;;;;23.87;48.11;100048.04;106216;1268;138884;-72
2022/07/30 11:04:42;;;;;;;5.70;2.90;;;;;;;23.78;47.89;100049.56;106352;1270;96500;-71
2022/07/30 11:07:34;;;;;;;4.60;2.70;;;;;;;23.66;47.87;100045.13;106231;1268;137255;-70
2022/07/30 11:10:08;;;;;;;8.20;2.50;;;;;;;23.48;48.08;100047.73;106284;1268;107920;-71
2022/07/30 11:12:57;;;;;;;3.20;2.20;;;;;;;23.30;48.22;100043.00;106169;1268;137666;-69
2022/07/30 11:15:53;;;;;;;6.40;2.60;;;;;;;23.07;48.49;100039.54;106303;1268;96455;-70
2022/07/30 11:18:28;;;;;;;4.60;2.50;;;;;;;22.82;49.09;100039.16;106223;1268;137524;-70
2022/07/30 11:21:18;;;;;;;6.60;2.60;;;;;;;22.64;49.29;100036.16;106337;1268;110467;-70
2022/07/30 11:23:52;;;;;;;5.80;2.20;;;;;;;22.43;49.64;100037.80;107464;1268;107618;-69
2022/07/30 11:26:51;;;;;;;5.30;2.40;;;;;;;22.21;50.12;100040.02;106198;1269;137812;-72
2022/07/30 11:29:42;;;;;;;3.30;2.40;;;;;;;22.04;50.70;100040.67;106097;1268;219499;-71
2022/07/30 11:32:30;;;;;;;6.50;2.90;;;;;;;21.93;51.59;100042.44;106178;1270;137616;-70
2022/07/30 11:35:19;;;;;;;2.90;2.20;;;;;;;21.88;52.16;100040.07;106283;1268;111086;-70
2022/07/30 11:38:07;;;;;;;7.00;4.70;;;;;;;21.82;52.69;100040.38;106219;1268;137667;-70
2022/07/30 11:40:59;;;;;;;5.30;2.90;;;;;;;21.78;53.73;100036.06;106254;1268;108912;-70
2022/07/30 11:43:35;;;;;;;5.80;3.70;;;;;;;21.75;54.37;100028.96;106125;1268;137961;-70
2022/07/30 11:46:09;;;;;;;8.30;3.80;;;;;;;21.68;54.32;100029.42;106239;1268;96512;-71
2022/07/30 11:48:57;;;;;;;6.80;3.20;;;;;;;21.65;54.84;100030.80;106225;1268;138910;-70
2022/07/30 11:51:39;;;;;;;6.50;3.00;;;;;;;21.62;55.45;100031.19;106228;1268;108209;-70
2022/07/30 11:54:13;;;;;;;9.20;3.00;;;;;;;21.57;55.96;100031.76;106061;1268;139257;-69
2022/07/30 11:56:54;;;;;;;5.30;2.80;;;;;;;21.54;56.22;100029.38;106170;1270;96491;-70
2022/07/30 11:59:29;;;;;;;6.50;3.30;;;;;;;21.53;57.00;100026.14;106286;1270;96383;-69
2022/07/30 12:02:01;;;;;;;8.40;3.00;;;;;;;21.50;57.25;100021.39;106364;1268;138768;-70
2022/07/30 12:04:42;;;;;;;5.70;3.10;;;;;;;21.49;57.65;100020.96;106334;1268;108343;-70
2022/07/30 12:07:21;;;;;;;8.50;3.20;;;;;;;21.48;58.09;100017.99;106096;1270;138129;-71